Time;durP1;ratioP1;P1;durP2;ratioP2;P2;SDS_P1;SDS_P2;PMS_P1;PMS_P2;Temp;Humidity;BMP_temperature;BMP_pressure;BME280_temperature;BME280_humidity;BME280_pressure;Samples;Min_cycle;Max_cycle;Signal;HPM_P1;HPM_P2
2021/05/19 00:01:51;;;;;;;4.40;2.80;;;13.70;49.00;;;;;;6215401;23;20392;-87
2021/05/19 00:04:17;;;;;;;2.87;1.17;;;13.50;49.20;;;;;;6216889;23;20454;-88
2021/05/19 00:06:44;;;;;;;0.90;0.80;;;13.60;49.10;;;;;;6215204;23;20373;-87
2021/05/19 00:09:13;;;;;;;4.53;1.40;;;13.70;49.00;;;;;;6215397;23;20378;-87
2021/05/19 00:11:40;;;;;;;1.10;1.00;;;13.50;48.30;;;;;;6215400;23;20374;-87
2021/05/19 00:14:07;;;;;;;2.87;1.20;;;13.70;48.60;;;;;;6215423;23;20440;-88
2021/05/19 00:16:33;;;;;;;2.25;1.00;;;13.40;48.30;;;;;;6215213;23;20397;-87
2021/05/19 00:18:59;;;;;;;2.30;1.43;;;13.30;48.60;;;;;;6215555;23;20150;-87
2021/05/19 00:21:25;;;;;;;2.20;1.03;;;13.20;49.50;;;;;;6217134;23;20354;-87
2021/05/19 00:23:51;;;;;;;1.50;1.40;;;13.10;50.20;;;;;;6214411;23;20385;-88
2021/05/19 00:26:17;;;;;;;1.17;0.93;;;13.10;49.70;;;;;;6215126;23;20898;-88
2021/05/19 00:28:45;;;;;;;1.33;0.90;;;13.30;49.70;;;;;;6214815;23;20778;-87
2021/05/19 00:31:12;;;;;;;7.43;2.03;;;13.10;49.50;;;;;;6214730;23;20381;-86
2021/05/19 00:33:38;;;;;;;1.23;1.13;;;13.00;50.00;;;;;;6215162;23;20512;-86
2021/05/19 00:36:04;;;;;;;0.90;0.77;;;12.80;50.40;;;;;;6215482;23;20685;-87
2021/05/19 00:38:30;;;;;;;1.70;1.20;;;12.90;50.70;;;;;;6215987;23;20443;-89
2021/05/19 00:40:55;;;;;;;1.33;0.97;;;12.70;50.70;;;;;;6214769;23;20464;-88
2021/05/19 00:43:23;;;;;;;0.83;0.80;;;12.40;51.50;;;;;;6214722;23;20574;-89
2021/05/19 00:45:49;;;;;;;1.10;1.10;;;12.50;51.90;;;;;;6214719;23;20215;-88
2021/05/19 00:48:15;;;;;;;1.20;1.10;;;12.50;52.40;;;;;;6214361;23;20189;-89
2021/05/19 00:50:41;;;;;;;1.70;0.70;;;12.50;52.60;;;;;;6214884;23;20447;-88
2021/05/19 00:53:06;;;;;;;0.80;0.80;;;12.50;52.50;;;;;;6214516;23;20178;-88
2021/05/19 00:55:33;;;;;;;3.43;1.07;;;12.90;52.80;;;;;;6214669;23;20146;-88
2021/05/19 00:57:59;;;;;;;4.88;1.75;;;12.60;52.00;;;;;;6215059;23;20464;-89
2021/05/19 01:00:26;;;;;;;4.80;1.40;;;12.60;52.20;;;;;;6214330;23;20593;-88
2021/05/19 01:02:53;;;;;;;1.10;1.00;;;12.50;52.70;;;;;;6214696;23;20164;-89
2021/05/19 01:10:38;;;;;;;2.13;1.08;;;12.80;52.20;;;;;;6216328;23;20141;-89
2021/05/19 01:13:05;;;;;;;1.38;1.10;;;12.40;52.30;;;;;;6214292;23;20529;-89
2021/05/19 01:15:32;;;;;;;1.85;1.20;;;12.50;52.40;;;;;;6214721;23;20148;-87
2021/05/19 01:17:58;;;;;;;0.88;0.88;;;12.90;53.10;;;;;;6215673;23;20181;-87
2021/05/19 01:20:25;;;;;;;3.33;1.03;;;12.90;52.50;;;;;;6214867;23;20181;-87
2021/05/19 01:22:51;;;;;;;1.03;0.90;;;13.00;51.60;;;;;;6215181;23;20385;-88
2021/05/19 01:25:17;;;;;;;0.80;0.80;;;13.20;51.60;;;;;;6215034;23;20465;-87
2021/05/19 01:27:57;;;;;;;1.13;1.03;;;13.40;51.10;;;;;;6215076;23;20155;-87
2021/05/19 01:30:24;;;;;;;1.00;0.90;;;13.60;50.40;;;;;;6214661;23;20381;-87
2021/05/19 01:32:50;;;;;;;1.10;1.00;;;13.50;49.80;;;;;;6215315;23;20734;-87
2021/05/19 01:35:17;;;;;;;1.40;1.00;;;13.50;49.80;;;;;;6215219;23;20431;-88
2021/05/19 01:37:45;;;;;;;1.10;1.00;;;13.60;49.90;;;;;;6215433;23;20753;-88
2021/05/19 01:40:13;;;;;;;1.47;1.00;;;13.60;49.40;;;;;;6214969;23;20388;-87
2021/05/19 01:42:39;;;;;;;1.23;0.90;;;13.40;49.20;;;;;;6214812;23;20476;-87
2021/05/19 01:45:07;;;;;;;1.20;0.90;;;13.50;50.40;;;;;;6214120;23;20503;-87
2021/05/19 01:47:54;;;;;;;1.02;0.90;;;13.40;50.00;;;;;;6214684;23;20377;-87
2021/05/19 01:50:26;;;;;;;1.43;0.90;;;13.20;49.90;;;;;;6214970;23;20173;-87
2021/05/19 01:52:55;;;;;;;1.70;1.37;;;13.20;50.40;;;;;;6215171;23;20472;-88
2021/05/19 01:55:22;;;;;;;1.37;1.27;;;13.10;50.70;;;;;;6214718;23;20368;-87
2021/05/19 01:57:49;;;;;;;1.60;1.03;;;13.10;51.20;;;;;;6215477;23;20377;-87
2021/05/19 02:00:16;;;;;;;0.93;0.93;;;13.10;50.40;;;;;;6216741;23;20373;-88
2021/05/19 02:02:42;;;;;;;1.43;0.97;;;12.90;51.00;;;;;;6217084;23;20581;-87
2021/05/19 02:05:13;;;;;;;2.00;1.40;;;13.10;52.10;;;;;;6216434;23;20408;-88
2021/05/19 02:07:39;;;;;;;2.40;1.00;;;12.90;52.60;;;;;;6216947;23;20710;-88
2021/05/19 02:10:09;;;;;;;1.87;0.93;;;12.40;52.20;;;;;;6216577;23;20396;-88
2021/05/19 02:12:36;;;;;;;1.60;1.00;;;12.60;52.70;;;;;;6216487;23;21003;-87
2021/05/19 02:15:03;;;;;;;1.37;0.80;;;12.60;52.50;;;;;;6216187;23;20409;-88
2021/05/19 02:17:29;;;;;;;1.10;1.00;;;13.10;52.70;;;;;;6216398;23;20380;-88
2021/05/19 02:19:55;;;;;;;1.10;1.02;;;12.80;51.70;;;;;;6216475;23;20150;-88
2021/05/19 02:22:22;;;;;;;1.07;1.00;;;13.30;51.50;;;;;;6216425;23;20154;-88
2021/05/19 02:24:47;;;;;;;2.10;1.00;;;13.00;50.70;;;;;;6216588;23;20553;-86
2021/05/19 02:27:19;;;;;;;1.17;1.03;;;13.00;50.70;;;;;;6215605;23;20473;-87
2021/05/19 02:29:55;;;;;;;1.00;0.63;;;13.10;50.70;;;;;;6216393;23;20146;-88
2021/05/19 02:32:21;;;;;;;2.10;0.80;;;13.30;51.00;;;;;;6216804;23;20503;-87
2021/05/19 02:34:48;;;;;;;1.27;1.13;;;12.90;50.80;;;;;;6215841;23;20366;-88
2021/05/19 02:37:14;;;;;;;1.23;1.13;;;13.10;51.50;;;;;;6215929;23;20406;-87
2021/05/19 02:39:40;;;;;;;2.75;1.10;;;12.90;51.40;;;;;;6215462;23;20369;-87
2021/05/19 02:42:06;;;;;;;1.60;0.90;;;13.00;51.70;;;;;;6215972;23;20566;-87
2021/05/19 02:44:32;;;;;;;1.10;1.00;;;13.00;51.70;;;;;;6216199;23;20433;-87
2021/05/19 02:46:57;;;;;;;1.73;1.20;;;12.80;51.90;;;;;;6217301;23;20810;-87
2021/05/19 02:49:23;;;;;;;1.57;1.23;;;12.80;51.90;;;;;;6216204;23;20238;-87
2021/05/19 02:51:49;;;;;;;2.83;1.00;;;12.90;52.20;;;;;;6216238;23;20150;-88
2021/05/19 02:54:14;;;;;;;1.20;1.10;;;12.90;52.00;;;;;;6216068;23;20232;-88
2021/05/19 02:56:40;;;;;;;1.17;1.07;;;12.90;51.80;;;;;;6215396;23;20224;-87
2021/05/19 02:59:06;;;;;;;1.20;1.10;;;13.00;51.80;;;;;;6215597;23;20142;-87
2021/05/19 03:01:32;;;;;;;1.70;1.23;;;12.80;51.70;;;;;;6216286;23;20155;-88
2021/05/19 03:03:58;;;;;;;1.60;1.05;;;12.90;52.20;;;;;;6215859;23;20157;-87
2021/05/19 03:06:24;;;;;;;1.27;1.17;;;12.90;52.00;;;;;;6215889;23;20150;-88
2021/05/19 03:08:51;;;;;;;0.90;0.90;;;12.90;52.00;;;;;;6216700;23;20135;-87
2021/05/19 03:11:17;;;;;;;1.47;1.10;;;12.60;51.60;;;;;;6215856;23;20502;-87
2021/05/19 03:13:42;;;;;;;1.77;1.10;;;12.80;52.20;;;;;;6215808;23;20421;-89
2021/05/19 03:16:08;;;;;;;1.30;1.20;;;12.80;52.20;;;;;;6217452;23;20230;-89
2021/05/19 03:18:35;;;;;;;1.40;1.20;;;13.20;51.90;;;;;;6216309;23;20381;-90
2021/05/19 03:21:02;;;;;;;1.77;1.57;;;13.00;51.20;;;;;;6217359;23;20302;-88
2021/05/19 03:23:29;;;;;;;1.63;1.30;;;13.20;51.40;;;;;;6216048;23;20436;-91
2021/05/19 03:25:55;;;;;;;1.40;1.30;;;13.00;51.20;;;;;;6215713;23;20702;-88
2021/05/19 03:28:21;;;;;;;1.23;1.13;;;13.00;51.00;;;;;;6217343;23;20420;-87
2021/05/19 03:30:48;;;;;;;1.87;1.43;;;13.10;50.90;;;;;;6215780;23;20476;-88
2021/05/19 03:33:14;;;;;;;3.30;1.53;;;13.00;51.10;;;;;;6216398;23;20429;-89
2021/05/19 03:35:48;;;;;;;1.50;1.27;;;13.30;51.00;;;;;;6215228;23;20377;-88
2021/05/19 03:38:14;;;;;;;1.67;1.00;;;13.20;50.60;;;;;;6216044;23;20154;-88
2021/05/19 03:40:46;;;;;;;2.47;1.10;;;13.40;50.60;;;;;;6215687;23;20413;-88
2021/05/19 03:43:18;;;;;;;1.20;1.10;;;13.30;50.30;;;;;;6216311;23;20434;-88
2021/05/19 03:45:44;;;;;;;3.00;1.43;;;13.30;49.70;;;;;;6216229;23;20432;-88
2021/05/19 03:48:10;;;;;;;1.40;1.30;;;13.40;49.70;;;;;;6217442;23;20358;-88
2021/05/19 03:50:37;;;;;;;1.97;1.30;;;13.40;49.80;;;;;;6216932;23;20131;-88
2021/05/19 03:53:06;;;;;;;2.97;2.43;;;13.50;49.80;;;;;;6215779;23;20467;-88
2021/05/19 03:55:32;;;;;;;1.87;1.40;;;13.50;49.30;;;;;;6215009;23;20826;-88
2021/05/19 03:57:58;;;;;;;1.50;1.40;;;13.40;49.70;;;;;;6215253;23;20372;-88
2021/05/19 04:00:26;;;;;;;1.37;1.27;;;13.00;49.40;;;;;;6215103;23;20413;-87
2021/05/19 04:02:52;;;;;;;1.40;1.30;;;12.90;50.30;;;;;;6215530;23;20189;-87
2021/05/19 04:05:21;;;;;;;1.33;1.17;;;13.10;50.70;;;;;;6217397;23;20389;-87
2021/05/19 04:08:20;;;;;;;1.83;1.20;;;12.90;50.70;;;;;;6216631;23;20374;-87
2021/05/19 04:10:46;;;;;;;1.83;1.23;;;13.10;50.50;;;;;;6217319;23;20396;-88
2021/05/19 04:13:46;;;;;;;2.77;1.40;;;12.80;50.50;;;;;;6216331;23;20421;-89
2021/05/19 04:16:12;;;;;;;1.50;1.30;;;13.20;51.10;;;;;;6215310;23;20147;-89
2021/05/19 04:18:40;;;;;;;1.60;1.50;;;12.80;51.20;;;;;;6215884;23;20149;-90
2021/05/19 04:21:06;;;;;;;1.90;1.67;;;12.60;51.80;;;;;;6216071;23;20896;-90
2021/05/19 04:23:34;;;;;;;1.40;1.00;;;12.60;51.60;;;;;;6216094;23;20758;-89
2021/05/19 04:26:00;;;;;;;2.78;1.15;;;12.50;52.40;;;;;;6217720;23;20150;-89
2021/05/19 04:28:25;;;;;;;2.03;1.67;;;12.80;53.10;;;;;;6217401;23;20600;-93
2021/05/19 04:30:51;;;;;;;4.20;1.70;;;12.50;52.60;;;;;;6215100;23;20146;-88
2021/05/19 04:33:20;;;;;;;2.40;2.20;;;12.30;52.40;;;;;;6215487;23;20177;-91
2021/05/19 04:35:47;;;;;;;2.03;1.65;;;12.20;52.20;;;;;;6217749;23;20150;-90
2021/05/19 04:38:14;;;;;;;1.90;1.50;;;12.40;52.50;;;;;;6215788;23;20173;-89
2021/05/19 04:40:40;;;;;;;2.28;1.40;;;12.60;52.10;;;;;;6215791;23;20423;-89
2021/05/19 04:43:09;;;;;;;1.90;1.70;;;12.60;52.70;;;;;;6215738;23;20201;-90
2021/05/19 04:45:35;;;;;;;1.60;1.20;;;12.80;51.90;;;;;;6217438;23;20386;-91
2021/05/19 04:48:07;;;;;;;2.28;1.70;;;12.50;52.40;;;;;;6216551;23;20419;-90
2021/05/19 04:50:34;;;;;;;2.40;1.58;;;12.60;52.20;;;;;;6217107;23;20157;-89
2021/05/19 04:53:02;;;;;;;1.50;1.40;;;12.80;51.40;;;;;;6215923;23;20201;-90
2021/05/19 04:55:28;;;;;;;2.20;1.27;;;12.70;51.80;;;;;;6216779;23;20382;-89
2021/05/19 04:58:00;;;;;;;2.40;1.93;;;12.50;51.10;;;;;;6214548;23;20382;-90
2021/05/19 05:00:26;;;;;;;2.67;1.50;;;12.30;51.10;;;;;;6217246;23;20511;-90
2021/05/19 05:03:29;;;;;;;1.88;1.63;;;12.70;51.70;;;;;;6216167;23;20382;-91
2021/05/19 05:05:56;;;;;;;4.93;4.00;;;12.90;51.50;;;;;;6217377;23;20237;-94
2021/05/19 05:08:35;;;;;;;3.70;2.77;;;13.00;51.10;;;;;;6216757;23;20420;-89
2021/05/19 05:11:00;;;;;;;3.10;1.90;;;13.00;50.00;;;;;;6215165;23;20384;-90
2021/05/19 05:13:36;;;;;;;2.83;2.50;;;12.90;50.80;;;;;;6214786;23;20450;-91
2021/05/19 05:16:02;;;;;;;1.50;1.30;;;12.70;51.50;;;;;;6216059;23;20147;-93
2021/05/19 05:18:59;;;;;;;3.93;1.43;;;12.90;51.70;;;;;;6217594;23;20536;-90
2021/05/19 05:21:25;;;;;;;1.73;1.30;;;12.90;50.70;;;;;;6216920;23;20153;-94
2021/05/19 05:23:52;;;;;;;2.60;2.40;;;13.10;50.10;;;;;;6215936;23;20381;-89
2021/05/19 05:26:19;;;;;;;1.67;1.57;;;13.10;49.50;;;;;;6215697;23;20161;-89
2021/05/19 05:29:39;;;;;;;3.17;2.10;;;13.20;49.50;;;;;;6217743;23;20385;-91
2021/05/19 05:35:29;;;;;;;1.80;1.70;;;13.30;49.60;;;;;;6221035;23;20412;-92
2021/05/19 05:37:55;;;;;;;1.63;1.53;;;13.40;49.70;;;;;;6221590;23;20373;-92
2021/05/19 05:43:56;;;;;;;2.27;1.50;;;13.70;48.80;;;;;;6220293;23;20212;-91
2021/05/19 05:46:22;;;;;;;1.93;1.83;;;13.70;48.50;;;;;;6218054;23;20431;-92
2021/05/19 05:48:48;;;;;;;1.70;1.20;;;14.00;48.30;;;;;;6221199;23;20382;-92
2021/05/19 05:51:33;;;;;;;1.53;1.43;;;14.00;48.70;;;;;;6218366;23;20647;-92
2021/05/19 05:53:58;;;;;;;2.53;1.60;;;14.10;47.50;;;;;;6217972;23;20174;-92
2021/05/19 05:56:42;;;;;;;2.10;1.60;;;14.30;47.20;;;;;;6218275;23;20419;-92
2021/05/19 05:59:09;;;;;;;2.60;1.80;;;14.40;47.00;;;;;;6221267;23;20139;-90
2021/05/19 06:01:35;;;;;;;1.87;1.63;;;14.30;46.20;;;;;;6219742;23;20409;-92
2021/05/19 06:04:01;;;;;;;1.70;1.37;;;14.00;46.70;;;;;;6224015;23;20373;-92
2021/05/19 06:06:27;;;;;;;2.63;1.97;;;13.90;47.90;;;;;;6222946;23;20706;-91
2021/05/19 06:09:16;;;;;;;1.70;1.60;;;14.10;47.40;;;;;;6218778;23;20390;-91
2021/05/19 06:12:00;;;;;;;3.03;1.87;;;14.10;46.00;;;;;;6223802;23;20365;-91
2021/05/19 06:14:25;;;;;;;4.03;1.90;;;14.70;46.20;;;;;;6216976;23;20732;-90
2021/05/19 06:17:15;;;;;;;1.20;1.10;;;14.80;45.40;;;;;;6226338;23;20416;-94
2021/05/19 06:19:41;;;;;;;1.63;1.43;;;15.30;44.40;;;;;;6219725;23;20158;-93
2021/05/19 06:22:08;;;;;;;2.10;1.30;;;15.90;42.60;;;;;;6220698;23;20374;-91
2021/05/19 06:24:34;;;;;;;1.83;1.50;;;16.20;41.10;;;;;;6218571;23;20372;-90
2021/05/19 06:27:04;;;;;;;3.23;1.33;;;16.50;39.00;;;;;;6218486;23;20385;-90
2021/05/19 06:29:30;;;;;;;1.93;1.50;;;17.30;40.20;;;;;;6220904;23;20370;-95
2021/05/19 06:31:57;;;;;;;2.13;1.40;;;17.80;37.60;;;;;;6218560;23;20405;-91
2021/05/19 06:34:23;;;;;;;3.13;1.33;;;18.60;36.00;;;;;;6216144;23;20457;-90
2021/05/19 06:36:51;;;;;;;3.40;1.47;;;19.40;32.90;;;;;;6222208;23;20436;-96
2021/05/19 06:39:22;;;;;;;1.73;1.27;;;19.50;30.80;;;;;;6225008;23;20320;-92
2021/05/19 06:41:51;;;;;;;1.63;1.20;;;18.80;32.10;;;;;;6221701;23;20401;-92
2021/05/19 06:44:19;;;;;;;1.50;1.40;;;18.70;34.10;;;;;;6219144;23;20824;-92
2021/05/19 06:46:46;;;;;;;1.40;1.30;;;18.40;32.50;;;;;;6217006;23;20393;-91
2021/05/19 06:49:12;;;;;;;2.00;1.37;;;18.30;33.90;;;;;;6215851;23;20394;-90
2021/05/19 06:51:38;;;;;;;1.80;1.60;;;18.40;35.00;;;;;;6216786;23;20400;-91
2021/05/19 06:54:05;;;;;;;1.73;1.53;;;17.90;35.80;;;;;;6213554;23;20431;-86
2021/05/19 06:56:31;;;;;;;1.60;1.43;;;17.60;35.20;;;;;;6214613;23;20377;-86
2021/05/19 06:59:00;;;;;;;1.57;1.47;;;17.20;37.00;;;;;;6215479;23;20408;-86
2021/05/19 07:01:28;;;;;;;2.40;2.20;;;16.70;37.60;;;;;;6214588;23;20382;-86
2021/05/19 07:03:54;;;;;;;7.60;2.23;;;16.70;39.30;;;;;;6212556;23;20397;-83
2021/05/19 07:06:20;;;;;;;2.80;1.53;;;15.80;40.60;;;;;;6213053;23;20416;-83
2021/05/19 07:08:46;;;;;;;2.13;1.70;;;15.50;41.90;;;;;;6213204;23;20392;-83
2021/05/19 07:11:13;;;;;;;2.43;1.37;;;15.60;42.60;;;;;;6212910;23;20397;-83
2021/05/19 07:13:39;;;;;;;1.50;1.40;;;15.60;42.00;;;;;;6213121;23;20425;-83
2021/05/19 07:16:05;;;;;;;1.20;1.00;;;16.40;40.20;;;;;;6212960;23;20382;-83
2021/05/19 07:18:32;;;;;;;2.37;1.83;;;17.10;39.60;;;;;;6213047;23;20460;-83
2021/05/19 07:20:58;;;;;;;1.73;1.63;;;17.50;36.90;;;;;;6213441;23;20416;-83
2021/05/19 07:23:24;;;;;;;2.47;1.37;;;17.70;35.70;;;;;;6212619;23;20872;-83
2021/05/19 07:25:50;;;;;;;1.50;1.40;;;17.60;35.30;;;;;;6211806;23;20440;-84
2021/05/19 07:28:17;;;;;;;1.23;1.13;;;17.50;35.80;;;;;;6212285;23;20428;-83
2021/05/19 07:30:46;;;;;;;1.80;1.70;;;17.50;37.00;;;;;;6212341;23;20382;-83
2021/05/19 07:33:21;;;;;;;1.83;1.40;;;17.70;36.80;;;;;;6215400;23;20894;-89
2021/05/19 07:35:47;;;;;;;2.30;1.83;;;18.10;36.10;;;;;;6217073;23;20714;-89
2021/05/19 07:38:14;;;;;;;1.90;1.43;;;18.40;35.00;;;;;;6215818;23;20418;-90
2021/05/19 07:40:40;;;;;;;1.87;1.60;;;18.70;33.70;;;;;;6217069;23;20146;-89
2021/05/19 07:43:06;;;;;;;1.73;1.63;;;19.00;32.90;;;;;;6184533;23;707819;-89
2021/05/19 07:45:33;;;;;;;1.80;1.60;;;19.00;31.80;;;;;;6218756;23;20485;-89
2021/05/19 07:48:06;;;;;;;1.80;1.67;;;19.20;32.10;;;;;;6216850;23;20150;-89
2021/05/19 07:50:33;;;;;;;2.77;2.13;;;19.40;32.80;;;;;;6220169;23;20366;-88
2021/05/19 07:52:59;;;;;;;2.20;1.40;;;19.10;31.50;;;;;;6219104;23;20409;-90
2021/05/19 07:55:29;;;;;;;2.33;2.13;;;19.00;32.70;;;;;;6217711;23;20860;-90
2021/05/19 07:58:04;;;;;;;2.43;1.80;;;18.60;32.40;;;;;;6216310;23;20800;-90
2021/05/19 08:03:02;;;;;;;3.27;2.30;;;18.50;31.80;;;;;;6230393;23;20340;-90
2021/05/19 08:05:28;;;;;;;3.20;1.90;;;17.80;32.10;;;;;;6221282;23;20352;-90
2021/05/19 08:08:30;;;;;;;2.63;2.43;;;17.70;33.60;;;;;;6218977;23;20376;-91
2021/05/19 08:10:58;;;;;;;2.30;1.60;;;17.20;33.90;;;;;;6223953;23;20142;-92
2021/05/19 08:13:24;;;;;;;1.80;1.40;;;17.50;34.20;;;;;;6223574;23;20772;-92
2021/05/19 08:19:12;;;;;;;2.70;1.70;;;17.50;35.40;;;;;;6226052;23;20158;-92
2021/05/19 08:21:47;;;;;;;2.40;2.20;;;16.80;35.90;;;;;;6222909;23;20369;-89
2021/05/19 08:24:15;;;;;;;2.50;2.30;;;16.20;36.30;;;;;;6224102;23;20373;-91
2021/05/19 08:26:45;;;;;;;1.40;1.30;;;16.60;36.90;;;;;;6205568;23;20395;-94
2021/05/19 08:29:33;;;;;;;2.03;1.93;;;16.10;36.90;;;;;;6237513;23;20401;-93
2021/05/19 08:35:25;;;;;;;1.60;1.50;;;16.40;37.10;;;;;;6241628;22;20423;-95
2021/05/19 08:49:46;;;;;;;1.83;1.30;;;16.50;34.30;;;;;;6161412;22;20867;-90
2021/05/19 08:52:12;;;;;;;1.47;1.27;;;16.40;34.90;;;;;;6133935;23;20384;-89
2021/05/19 08:54:39;;;;;;;2.70;1.50;;;16.20;35.50;;;;;;6135573;23;20395;-90
2021/05/19 08:57:04;;;;;;;2.80;1.67;;;16.10;36.60;;;;;;6135357;23;20186;-89
2021/05/19 08:59:30;;;;;;;2.20;1.20;;;16.00;36.50;;;;;;6135068;23;20827;-89
2021/05/19 09:02:15;;;;;;;2.63;1.50;;;16.40;36.90;;;;;;6135385;23;20481;-88
2021/05/19 09:04:42;;;;;;;1.63;1.53;;;16.60;35.60;;;;;;6135777;23;20157;-88
2021/05/19 09:07:20;;;;;;;1.43;1.33;;;16.90;31.30;;;;;;6136248;23;20378;-89
2021/05/19 09:09:46;;;;;;;2.83;1.30;;;16.80;34.20;;;;;;6136949;23;20482;-90
2021/05/19 09:12:16;;;;;;;3.07;1.17;;;17.20;32.90;;;;;;6136245;23;20387;-89
2021/05/19 09:15:01;;;;;;;1.20;1.03;;;16.90;30.60;;;;;;6136208;23;20379;-89
2021/05/19 09:17:30;;;;;;;1.80;1.20;;;17.10;31.10;;;;;;6135526;23;20389;-89
2021/05/19 09:20:07;;;;;;;2.67;1.20;;;16.90;30.80;;;;;;6135431;23;20375;-90
2021/05/19 09:22:43;;;;;;;1.43;1.23;;;16.90;31.10;;;;;;6136584;23;20914;-88
2021/05/19 09:25:18;;;;;;;1.30;1.20;;;16.80;31.20;;;;;;6136460;23;20383;-89
2021/05/19 09:27:47;;;;;;;1.00;1.00;;;16.90;32.40;;;;;;6135319;23;20379;-89
2021/05/19 09:30:13;;;;;;;2.93;1.17;;;17.60;31.00;;;;;;6133742;23;20518;-89
2021/05/19 09:32:43;;;;;;;3.27;1.20;;;17.00;28.90;;;;;;6134959;23;20446;-88
2021/05/19 09:35:10;;;;;;;3.40;1.50;;;16.80;30.00;;;;;;6134337;23;20356;-89
2021/05/19 09:37:38;;;;;;;2.77;1.17;;;16.70;31.20;;;;;;6133110;23;20466;-89
2021/05/19 09:40:12;;;;;;;1.90;1.17;;;16.60;32.40;;;;;;6135300;23;20375;-89
2021/05/19 09:42:49;;;;;;;1.83;0.90;;;16.60;30.40;;;;;;6134302;23;20379;-92
2021/05/19 09:45:16;;;;;;;3.57;1.10;;;16.90;30.70;;;;;;6134909;23;20379;-91
2021/05/19 09:47:43;;;;;;;1.10;1.00;;;17.10;30.90;;;;;;6134249;23;20466;-91
2021/05/19 09:50:33;;;;;;;1.70;0.80;;;17.00;32.60;;;;;;6135597;23;20395;-91
2021/05/19 09:53:13;;;;;;;1.83;1.50;;;17.30;31.30;;;;;;6135552;23;20918;-91
2021/05/19 09:55:41;;;;;;;0.97;0.90;;;17.20;30.40;;;;;;6134669;23;20473;-88
2021/05/19 09:58:08;;;;;;;1.17;0.93;;;17.30;29.70;;;;;;6135361;23;20846;-91
2021/05/19 10:00:44;;;;;;;0.90;0.90;;;17.60;31.60;;;;;;6135198;23;20383;-92
2021/05/19 10:03:15;;;;;;;1.77;1.00;;;17.60;29.50;;;;;;6135436;23;20390;-91
2021/05/19 10:05:50;;;;;;;1.10;0.90;;;17.70;28.40;;;;;;6134359;23;20441;-91
2021/05/19 10:08:16;;;;;;;1.33;1.20;;;17.70;27.20;;;;;;6136936;23;20357;-96
2021/05/19 10:10:42;;;;;;;2.00;0.83;;;18.10;27.90;;;;;;6137338;23;20389;-90
2021/05/19 10:13:08;;;;;;;1.07;0.97;;;18.00;26.60;;;;;;6137873;23;20183;-91
2021/05/19 10:15:43;;;;;;;0.73;0.70;;;17.70;26.00;;;;;;6137858;23;20383;-93
2021/05/19 10:19:11;;;;;;;0.87;0.70;;;17.70;25.20;;;;;;6144007;23;20132;-93
2021/05/19 10:21:37;;;;;;;0.90;0.80;;;18.10;25.00;;;;;;6172324;23;20410;-89
2021/05/19 10:24:06;;;;;;;1.13;0.73;;;18.10;23.40;;;;;;6131936;23;20851;-90
2021/05/19 10:26:52;;;;;;;1.00;1.00;;;18.00;23.40;;;;;;6131522;23;20490;-92
2021/05/19 10:29:47;;;;;;;2.40;1.03;;;17.50;23.80;;;;;;6132151;23;20383;-89
2021/05/19 10:32:21;;;;;;;1.80;0.77;;;17.90;24.20;;;;;;6133460;23;20419;-90
2021/05/19 10:35:11;;;;;;;1.30;0.70;;;18.00;23.70;;;;;;6135429;23;20415;-90
2021/05/19 10:37:56;;;;;;;0.80;0.70;;;17.90;24.00;;;;;;6134514;23;20839;-88
2021/05/19 10:40:22;;;;;;;1.20;0.60;;;17.90;25.40;;;;;;6133727;23;20391;-90
2021/05/19 10:43:00;;;;;;;3.60;0.80;;;18.00;23.30;;;;;;6137340;23;20386;-94
2021/05/19 10:45:26;;;;;;;1.87;0.57;;;18.40;22.20;;;;;;6137382;23;20375;-93
2021/05/19 10:47:53;;;;;;;1.73;1.00;;;18.50;23.70;;;;;;6126079;23;20435;-93
2021/05/19 10:50:38;;;;;;;4.53;1.20;;;18.60;23.70;;;;;;6105442;23;20355;-93
2021/05/19 10:58:52;;;;;;;5.00;0.73;;;18.40;22.10;;;;;;6131749;23;20407;-94
2021/05/19 11:04:34;;;;;;;1.60;0.90;;;18.80;22.30;;;;;;6137907;23;20443;-95
2021/05/19 11:07:06;;;;;;;1.17;0.90;;;18.70;22.80;;;;;;6109744;23;20408;-91
2021/05/19 11:09:34;;;;;;;0.87;0.60;;;18.70;22.00;;;;;;6106017;23;20602;-93
2021/05/19 11:15:18;;;;;;;1.50;0.87;;;19.10;20.20;;;;;;6135613;23;20444;-87
2021/05/19 11:17:56;;;;;;;0.60;0.57;;;19.60;20.10;;;;;;6126894;23;20376;-92
2021/05/19 11:20:22;;;;;;;1.43;0.70;;;19.40;21.20;;;;;;6106496;23;20346;-92
2021/05/19 11:22:48;;;;;;;0.70;0.57;;;19.60;20.60;;;;;;6105857;23;20485;-92
2021/05/19 11:25:14;;;;;;;3.97;0.90;;;19.80;20.60;;;;;;6107690;23;20175;-92
2021/05/19 11:27:59;;;;;;;1.00;0.90;;;20.10;20.10;;;;;;6107202;23;20152;-92
2021/05/19 11:30:26;;;;;;;2.47;0.77;;;20.30;18.60;;;;;;6107546;23;20400;-92
2021/05/19 11:33:15;;;;;;;2.93;1.00;;;20.30;20.10;;;;;;6105995;23;20422;-93
2021/05/19 11:35:41;;;;;;;2.70;1.00;;;20.40;19.80;;;;;;6108261;23;20404;-92
2021/05/19 11:38:32;;;;;;;1.23;0.67;;;20.20;20.10;;;;;;6106736;23;20351;-91
2021/05/19 11:41:00;;;;;;;1.00;0.80;;;20.60;17.70;;;;;;6105253;23;20462;-93
2021/05/19 11:43:36;;;;;;;1.50;0.83;;;20.20;18.30;;;;;;6105977;23;20387;-93
2021/05/19 11:46:02;;;;;;;0.83;0.60;;;19.60;19.00;;;;;;6107019;23;20832;-93
2021/05/19 11:48:29;;;;;;;2.03;0.80;;;20.10;19.90;;;;;;6124435;23;20427;-96
2021/05/19 11:50:58;;;;;;;2.10;0.83;;;20.30;18.10;;;;;;6137751;23;20174;-93
2021/05/19 11:53:24;;;;;;;1.30;0.80;;;20.40;16.10;;;;;;6135633;23;20405;-94
2021/05/19 11:56:14;;;;;;;2.10;0.80;;;20.00;18.00;;;;;;6134011;23;20379;-94
2021/05/19 11:58:39;;;;;;;2.07;0.90;;;20.00;19.30;;;;;;6137213;23;20371;-96
2021/05/19 12:01:10;;;;;;;3.43;1.20;;;20.00;20.90;;;;;;6139590;23;20385;-95
2021/05/19 12:03:38;;;;;;;3.17;1.10;;;19.60;20.50;;;;;;6141933;23;20485;-95
2021/05/19 12:06:05;;;;;;;2.47;0.83;;;19.60;19.20;;;;;;6142295;23;20375;-95
2021/05/19 12:11:53;;;;;;;2.23;1.20;;;20.00;19.70;;;;;;6168628;23;20825;-96
2021/05/19 12:14:21;;;;;;;3.37;1.73;;;20.40;19.70;;;;;;6144208;23;20505;-95
2021/05/19 12:16:47;;;;;;;0.90;0.70;;;21.00;20.80;;;;;;6143170;23;20227;-94
2021/05/19 12:19:15;;;;;;;1.20;0.60;;;20.60;17.00;;;;;;6144244;23;20881;-95
2021/05/19 12:21:45;;;;;;;1.30;0.80;;;21.10;17.00;;;;;;6145372;23;20361;-94
2021/05/19 12:24:13;;;;;;;1.20;1.07;;;21.20;16.40;;;;;;6142056;23;20385;-94
2021/05/19 12:26:40;;;;;;;1.70;0.90;;;21.10;17.60;;;;;;6138003;23;20387;-90
2021/05/19 12:29:33;;;;;;;1.53;0.90;;;21.50;18.20;;;;;;6138496;23;20350;-91
2021/05/19 12:32:22;;;;;;;2.00;0.73;;;21.00;17.90;;;;;;6134770;23;20369;-92
2021/05/19 12:35:12;;;;;;;2.40;1.00;;;21.50;20.10;;;;;;6133606;23;20372;-91
2021/05/19 12:37:51;;;;;;;1.97;0.80;;;21.40;17.80;;;;;;6134741;23;20353;-92
2021/05/19 12:40:22;;;;;;;3.40;1.40;;;21.50;20.00;;;;;;6135449;23;20382;-92
2021/05/19 12:42:52;;;;;;;2.27;0.90;;;21.00;17.90;;;;;;6137296;23;20356;-91
2021/05/19 12:45:30;;;;;;;1.13;1.03;;;21.50;19.50;;;;;;6131631;23;20357;-88
2021/05/19 12:48:10;;;;;;;1.20;0.97;;;21.40;17.40;;;;;;6124964;23;20460;-89
2021/05/19 12:50:46;;;;;;;1.30;1.20;;;21.30;19.20;;;;;;6108402;23;20381;-89
2021/05/19 12:53:27;;;;;;;2.20;0.90;;;21.60;18.50;;;;;;6107910;23;20416;-89
2021/05/19 12:59:09;;;;;;;1.30;0.90;;;21.90;18.90;;;;;;6139348;23;20335;-88
2021/05/19 13:01:46;;;;;;;1.27;0.87;;;22.00;18.30;;;;;;6102994;23;20372;-88
2021/05/19 13:04:19;;;;;;;0.70;0.63;;;21.40;15.90;;;;;;6102681;23;20247;-89
2021/05/19 13:06:51;;;;;;;1.63;1.00;;;21.40;18.40;;;;;;6102996;23;20395;-87
2021/05/19 13:09:27;;;;;;;0.70;0.60;;;21.40;17.70;;;;;;6102471;23;20677;-90
2021/05/19 13:14:39;;;;;;;1.90;1.03;;;21.30;17.20;;;;;;6137768;23;20389;-89
2021/05/19 13:17:24;;;;;;;1.63;0.90;;;21.80;16.80;;;;;;6102634;23;20387;-89
2021/05/19 13:20:08;;;;;;;1.03;0.70;;;21.50;16.80;;;;;;6102538;23;20841;-87
2021/05/19 13:22:35;;;;;;;2.10;0.60;;;21.70;17.20;;;;;;6102049;23;20391;-87
2021/05/19 13:25:05;;;;;;;1.80;1.00;;;21.40;17.80;;;;;;6102488;23;20738;-89
2021/05/19 13:27:33;;;;;;;1.03;0.83;;;21.90;17.40;;;;;;6102914;23;20359;-86
2021/05/19 13:30:08;;;;;;;2.77;0.87;;;21.80;16.90;;;;;;6102400;23;20363;-86
2021/05/19 13:32:46;;;;;;;1.43;0.90;;;22.00;16.70;;;;;;6099983;23;20430;-86
2021/05/19 13:37:57;;;;;;;1.00;0.90;;;21.40;17.40;;;;;;6128327;23;20387;-87
2021/05/19 13:40:24;;;;;;;3.10;1.10;;;21.70;17.40;;;;;;6103449;23;20355;-87
2021/05/19 13:42:50;;;;;;;2.10;0.83;;;21.60;17.10;;;;;;6103354;23;20358;-87
2021/05/19 13:45:16;;;;;;;2.70;1.17;;;21.30;16.90;;;;;;6103064;23;20414;-87
2021/05/19 13:47:42;;;;;;;2.30;0.80;;;21.40;16.80;;;;;;6132996;23;20423;-87
2021/05/19 13:50:08;;;;;;;1.17;1.07;;;21.20;16.90;;;;;;6132230;23;20839;-87
2021/05/19 13:52:36;;;;;;;1.27;0.77;;;21.00;17.60;;;;;;6132356;23;20222;-88
2021/05/19 13:55:03;;;;;;;0.70;0.70;;;21.20;18.00;;;;;;6133563;23;20354;-88
2021/05/19 13:57:29;;;;;;;0.93;0.70;;;21.00;18.60;;;;;;6134122;23;20798;-88
2021/05/19 13:59:59;;;;;;;1.67;0.90;;;21.40;17.80;;;;;;6133644;23;20346;-87
2021/05/19 14:02:27;;;;;;;2.30;1.27;;;21.40;18.40;;;;;;6133224;23;20364;-88